Time;durP1;ratioP1;P1;durP2;ratioP2;P2;SDS_P1;SDS_P2;PMS_P1;PMS_P2;Temp;Humidity;BMP_temperature;BMP_pressure;BME280_temperature;BME280_humidity;BME280_pressure;Samples;Min_cycle;Max_cycle;Signal;HPM_P1;HPM_P2
2022/04/07 00:02:13;;;;;;;8.63;3.25;;;;;;;9.71;67.74;99006.66;5068348;28;20077;-70
2022/04/07 00:04:40;;;;;;;8.13;3.75;;;;;;;9.69;67.75;99006.75;5068647;28;20045;-70
2022/04/07 00:07:06;;;;;;;6.32;2.83;;;;;;;9.69;68.13;99006.75;5067943;28;20098;-70
2022/04/07 00:09:32;;;;;;;8.20;3.38;;;;;;;9.65;68.22;98988.78;5068445;28;20455;-70
2022/04/07 00:11:59;;;;;;;5.15;3.35;;;;;;;9.65;68.22;98989.59;5068189;28;20053;-70
2022/04/07 00:14:26;;;;;;;7.68;3.20;;;;;;;9.61;68.73;98990.78;5064683;28;20109;-70
2022/04/07 00:16:54;;;;;;;4.75;3.05;;;;;;;9.77;68.01;98982.63;5067154;28;20044;-70
2022/04/07 00:19:22;;;;;;;4.63;3.00;;;;;;;9.37;69.42;98984.78;5066879;28;20046;-70
2022/04/07 00:21:49;;;;;;;5.30;2.90;;;;;;;9.35;69.69;98983.25;5067684;28;20051;-70
2022/04/07 00:24:15;;;;;;;5.80;3.00;;;;;;;9.52;68.63;98983.66;5068185;28;20711;-70
2022/04/07 00:26:41;;;;;;;5.25;3.13;;;;;;;9.31;69.32;98974.78;5067948;28;20049;-70
2022/04/07 00:29:08;;;;;;;6.32;3.55;;;;;;;9.48;68.72;98963.88;5067025;28;20106;-70
2022/04/07 00:31:39;;;;;;;4.57;2.95;;;;;;;9.26;69.70;98963.81;5068530;28;20106;-70
2022/04/07 00:34:06;;;;;;;7.95;3.60;;;;;;;9.07;70.58;98955.66;5067864;28;20101;-70
2022/04/07 00:36:32;;;;;;;7.63;3.35;;;;;;;8.90;71.10;98950.84;5068634;28;20049;-70
2022/04/07 00:38:59;;;;;;;9.20;3.63;;;;;;;9.10;71.03;98950.22;5065841;28;20082;-70
2022/04/07 00:41:25;;;;;;;8.07;3.97;;;;;;;8.92;71.77;98947.19;5085410;28;20059;-70
2022/04/07 00:43:52;;;;;;;8.38;3.63;;;;;;;8.92;71.71;98936.72;5081661;28;20074;-70
2022/04/07 00:46:19;;;;;;;8.07;4.10;;;;;;;9.12;71.21;98935.25;5065950;28;20090;-70
2022/04/07 00:48:47;;;;;;;6.70;3.80;;;;;;;8.89;72.19;98928.28;5068263;28;20098;-70
2022/04/07 00:51:13;;;;;;;6.50;3.33;;;;;;;8.75;72.65;98932.75;5068162;28;20048;-70
2022/04/07 00:53:40;;;;;;;6.38;3.45;;;;;;;8.90;72.20;98927.34;5068693;28;20110;-70
2022/04/07 00:56:07;;;;;;;10.63;4.18;;;;;;;8.91;72.30;98929.81;5067686;28;20048;-70
2022/04/07 00:58:34;;;;;;;7.95;3.80;;;;;;;9.05;72.08;98928.81;5068511;28;20048;-70
2022/04/07 01:01:00;;;;;;;7.57;4.00;;;;;;;9.23;71.67;98917.81;5064188;28;20489;-70
2022/04/07 01:03:27;;;;;;;6.55;3.78;;;;;;;8.89;72.85;98910.81;5047624;28;20099;-70
2022/04/07 01:05:56;;;;;;;8.82;5.00;;;;;;;8.62;73.97;98918.88;5048169;28;20067;-70
2022/04/07 01:08:22;;;;;;;7.70;3.92;;;;;;;8.73;73.64;98913.72;5057006;28;20067;-70
2022/04/07 01:10:50;;;;;;;8.60;4.18;;;;;;;8.52;74.55;98907.44;5061764;28;20036;-70
2022/04/07 01:13:16;;;;;;;6.97;4.25;;;;;;;8.70;73.87;98910.50;5067688;28;20040;-70
2022/04/07 01:15:43;;;;;;;7.47;3.53;;;;;;;8.89;73.11;98894.28;5065509;28;20079;-70
2022/04/07 01:18:09;;;;;;;7.05;3.80;;;;;;;8.72;73.79;98901.56;5063645;28;20403;-70
2022/04/07 01:20:35;;;;;;;8.45;4.40;;;;;;;8.43;74.98;98895.03;5066876;28;20040;-70
2022/04/07 01:23:03;;;;;;;8.23;4.13;;;;;;;8.43;74.89;98889.81;5067934;28;20566;-70
2022/04/07 01:25:32;;;;;;;8.52;4.50;;;;;;;8.37;75.40;98882.41;5067379;28;20558;-70
2022/04/07 01:27:58;;;;;;;9.30;4.03;;;;;;;8.64;74.50;98884.81;5066435;28;20454;-70
2022/04/07 01:30:24;;;;;;;13.27;4.30;;;;;;;8.53;74.69;98888.22;5064686;28;20896;-70
2022/04/07 01:32:54;;;;;;;10.13;4.70;;;;;;;8.55;74.74;98886.31;5067544;28;20577;-70
2022/04/07 01:35:22;;;;;;;8.15;4.55;;;;;;;8.83;74.05;98886.91;5067651;28;20041;-70
2022/04/07 01:37:49;;;;;;;6.55;3.78;;;;;;;9.04;73.24;98885.31;5066453;28;20135;-70
2022/04/07 01:40:18;;;;;;;6.95;3.70;;;;;;;9.01;73.49;98877.72;5065153;28;20056;-70
2022/04/07 01:42:46;;;;;;;9.82;3.58;;;;;;;9.02;74.00;98884.59;5067585;28;20048;-70
2022/04/07 01:45:13;;;;;;;9.48;4.38;;;;;;;9.16;73.84;98881.78;5067263;28;20110;-70
2022/04/07 01:47:42;;;;;;;7.80;4.25;;;;;;;9.26;73.10;98878.38;5066962;28;20135;-70
2022/04/07 01:50:10;;;;;;;9.95;4.32;;;;;;;9.21;73.63;98875.25;5066807;28;20072;-70
2022/04/07 01:52:41;;;;;;;9.30;4.60;;;;;;;9.34;73.35;98854.25;5066488;28;20042;-70
2022/04/07 01:55:08;;;;;;;6.82;4.28;;;;;;;9.43;72.97;98856.13;5067798;28;20386;-70
2022/04/07 01:57:35;;;;;;;11.70;4.93;;;;;;;9.74;71.61;98847.59;5071107;28;20474;-70
2022/04/07 02:00:07;;;;;;;6.65;4.18;;;;;;;9.63;71.78;98841.53;5070387;28;20077;-70
2022/04/07 02:02:33;;;;;;;7.10;4.40;;;;;;;9.67;71.91;98833.31;5066416;28;20037;-70
2022/04/07 02:05:03;;;;;;;11.50;4.75;;;;;;;9.53;72.55;98836.19;5052563;28;20291;-70
2022/04/07 02:07:31;;;;;;;8.85;5.10;;;;;;;9.54;72.17;98826.53;5070754;28;20045;-70
2022/04/07 02:09:57;;;;;;;9.32;5.03;;;;;;;9.18;73.85;98825.81;5069973;28;20098;-70
2022/04/07 02:12:25;;;;;;;8.52;4.88;;;;;;;9.04;74.32;98826.03;5070420;28;20562;-70
2022/04/07 02:14:51;;;;;;;6.05;4.25;;;;;;;8.95;74.99;98824.09;5070905;28;20045;-70
2022/04/07 02:17:20;;;;;;;9.55;5.25;;;;;;;8.76;75.84;98814.19;5070294;28;20098;-70
2022/04/07 02:19:48;;;;;;;7.18;4.63;;;;;;;8.71;75.93;98824.16;5069943;28;20041;-70
2022/04/07 02:22:15;;;;;;;8.35;4.65;;;;;;;8.91;75.26;98820.03;5068859;28;20040;-70
2022/04/07 02:24:41;;;;;;;8.05;4.70;;;;;;;9.03;74.72;98818.28;5069073;28;20044;-70
2022/04/07 02:27:08;;;;;;;9.82;4.72;;;;;;;8.89;75.32;98815.88;5067545;28;20811;-70
2022/04/07 02:29:35;;;;;;;8.38;4.10;;;;;;;8.98;75.27;98818.63;5069908;28;20048;-70
2022/04/07 02:32:01;;;;;;;12.85;5.68;;;;;;;9.17;74.59;98805.00;5070669;28;20048;-70
2022/04/07 02:34:29;;;;;;;7.57;4.07;;;;;;;9.13;74.37;98803.56;5069867;28;20041;-70
2022/04/07 02:36:55;;;;;;;8.60;4.40;;;;;;;9.30;74.31;98800.50;5069008;28;20037;-70
2022/04/07 02:39:22;;;;;;;8.32;5.32;;;;;;;8.96;74.95;98778.72;5069629;28;20794;-70
2022/04/07 02:41:48;;;;;;;9.30;5.13;;;;;;;8.86;75.60;98788.22;5069756;28;20185;-71
2022/04/07 02:44:15;;;;;;;11.23;5.00;;;;;;;8.96;75.41;98789.16;5067122;28;20478;-70
2022/04/07 02:46:41;;;;;;;7.75;4.80;;;;;;;9.03;75.11;98784.31;5069858;28;20110;-70
2022/04/07 02:49:07;;;;;;;9.13;4.72;;;;;;;9.00;75.81;98781.94;5068904;28;20056;-70
2022/04/07 02:51:35;;;;;;;8.05;4.32;;;;;;;8.92;75.56;98785.13;5070194;28;20099;-70
2022/04/07 02:54:02;;;;;;;8.52;5.20;;;;;;;8.93;75.69;98778.94;5069648;28;20155;-70
2022/04/07 02:56:29;;;;;;;10.85;4.65;;;;;;;8.91;75.45;98774.78;5068797;28;20519;-70
2022/04/07 02:58:56;;;;;;;7.88;4.18;;;;;;;9.15;74.76;98775.53;5067864;28;20074;-69
2022/04/07 03:01:22;;;;;;;6.88;4.63;;;;;;;9.31;74.38;98762.09;5070087;28;20455;-70
2022/04/07 03:03:49;;;;;;;8.90;4.70;;;;;;;9.26;74.27;98763.28;5068550;28;20045;-69
2022/04/07 03:06:16;;;;;;;7.22;4.38;;;;;;;9.09;74.88;98762.94;5069179;28;20044;-70
2022/04/07 03:08:45;;;;;;;6.45;4.20;;;;;;;9.42;74.51;98755.09;5069731;28;20082;-70
2022/04/07 03:11:13;;;;;;;7.63;4.32;;;;;;;9.44;74.69;98757.56;5069600;28;20512;-70
2022/04/07 03:13:40;;;;;;;8.27;3.80;;;;;;;9.60;74.27;98756.25;5069249;28;20094;-70
2022/04/07 03:16:07;;;;;;;7.95;4.20;;;;;;;9.46;74.62;98751.25;5069980;28;20121;-70
2022/04/07 03:18:34;;;;;;;9.95;4.10;;;;;;;9.59;74.75;98738.88;5068624;28;20093;-70
2022/04/07 03:21:00;;;;;;;8.05;4.30;;;;;;;9.29;75.46;98741.28;5065664;28;20052;-70
2022/04/07 03:23:27;;;;;;;10.10;4.97;;;;;;;9.51;74.50;98722.97;5069629;28;20508;-70
2022/04/07 03:25:55;;;;;;;6.32;3.72;;;;;;;9.43;74.98;98711.44;5069338;28;20044;-70
2022/04/07 03:28:21;;;;;;;8.93;4.53;;;;;;;9.58;74.69;98702.38;5068525;28;20048;-70
2022/04/07 03:30:48;;;;;;;7.45;4.45;;;;;;;9.24;75.43;98691.13;5068861;28;20040;-70
2022/04/07 03:33:14;;;;;;;5.05;3.30;;;;;;;9.77;74.00;98690.31;5068976;28;20048;-70
2022/04/07 03:35:42;;;;;;;10.73;4.10;;;;;;;9.43;75.16;98686.09;5069251;28;20094;-70
2022/04/07 03:38:08;;;;;;;7.90;4.40;;;;;;;9.51;75.07;98683.72;5059421;28;20504;-70
2022/04/07 03:40:35;;;;;;;9.13;4.50;;;;;;;9.45;75.51;98679.00;5049249;28;20067;-70
2022/04/07 03:43:03;;;;;;;7.13;4.22;;;;;;;9.62;74.79;98665.38;5049064;28;20052;-70
2022/04/07 03:45:30;;;;;;;7.68;4.38;;;;;;;9.95;73.79;98659.19;5059862;28;20068;-70
2022/04/07 03:47:57;;;;;;;9.13;4.03;;;;;;;9.57;74.75;98664.91;5068577;28;20045;-70
2022/04/07 03:50:23;;;;;;;7.28;4.18;;;;;;;9.54;75.30;98673.00;5067481;28;20106;-70
2022/04/07 03:52:49;;;;;;;7.22;4.28;;;;;;;9.64;74.91;98667.88;5069061;28;20458;-70
2022/04/07 03:55:16;;;;;;;6.93;4.10;;;;;;;9.28;76.19;98662.00;5068275;28;20044;-70
2022/04/07 03:57:42;;;;;;;6.70;3.78;;;;;;;9.49;75.76;98654.25;5064865;28;20098;-70
2022/04/07 04:00:11;;;;;;;5.60;3.97;;;;;;;9.55;75.27;98655.53;5068063;28;20048;-70
2022/04/07 04:02:37;;;;;;;6.43;3.88;;;;;;;9.56;76.06;98647.56;5068410;28;20416;-70
2022/04/07 04:05:04;;;;;;;8.38;4.57;;;;;;;9.43;76.08;98649.50;5069323;28;20415;-70
2022/04/07 04:07:30;;;;;;;6.60;4.20;;;;;;;9.33;76.59;98651.19;5068540;28;20561;-70
2022/04/07 04:09:56;;;;;;;6.15;3.85;;;;;;;9.59;75.93;98642.09;5066307;28;20041;-70
2022/04/07 04:12:23;;;;;;;8.95;4.45;;;;;;;9.61;75.96;98636.72;5068314;28;20508;-70
2022/04/07 04:14:49;;;;;;;6.80;4.40;;;;;;;9.67;75.17;98623.16;5067871;28;20521;-70
2022/04/07 04:17:17;;;;;;;6.55;3.83;;;;;;;9.79;74.79;98622.16;5067666;28;20066;-70
2022/04/07 04:19:43;;;;;;;7.18;4.00;;;;;;;9.78;75.01;98617.88;5067599;28;20045;-70
2022/04/07 04:22:09;;;;;;;6.38;3.50;;;;;;;9.84;74.22;98617.34;5068258;28;20512;-70
2022/04/07 04:24:36;;;;;;;5.88;3.78;;;;;;;9.74;74.67;98619.06;5068174;28;20098;-70
2022/04/07 04:27:02;;;;;;;5.30;3.67;;;;;;;9.71;74.93;98617.53;5068437;28;20041;-70
2022/04/07 04:29:29;;;;;;;7.93;4.15;;;;;;;9.80;74.49;98615.94;5067325;28;20053;-70
2022/04/07 04:31:55;;;;;;;8.70;4.85;;;;;;;9.63;74.67;98612.09;5066646;28;20052;-70
2022/04/07 04:34:23;;;;;;;5.63;3.28;;;;;;;9.82;74.18;98602.75;5067785;28;20110;-70
2022/04/07 04:36:49;;;;;;;6.13;3.83;;;;;;;9.80;73.96;98605.47;5067279;28;20078;-70
2022/04/07 04:39:15;;;;;;;6.20;3.85;;;;;;;9.99;73.49;98616.09;5067585;28;20605;-70
2022/04/07 04:41:42;;;;;;;6.82;4.20;;;;;;;9.77;73.96;98609.19;5067867;28;20090;-70
2022/04/07 04:44:08;;;;;;;7.47;3.80;;;;;;;9.90;73.32;98614.25;5066359;28;20048;-70
2022/04/07 04:46:34;;;;;;;8.93;3.80;;;;;;;10.00;72.97;98606.44;5068527;28;20047;-69
2022/04/07 04:49:01;;;;;;;5.57;3.92;;;;;;;9.94;72.99;98596.50;5067222;28;20056;-69
2022/04/07 04:51:28;;;;;;;5.63;3.38;;;;;;;9.76;73.65;98594.41;5067670;28;20049;-69
2022/04/07 04:53:55;;;;;;;9.27;3.70;;;;;;;10.09;72.56;98596.03;5066184;28;20098;-69
2022/04/07 04:56:21;;;;;;;5.32;3.80;;;;;;;10.04;72.47;98594.78;5065380;28;20041;-69
2022/04/07 04:58:48;;;;;;;10.60;4.60;;;;;;;10.07;72.73;98591.88;5066209;28;20094;-70
2022/04/07 05:01:14;;;;;;;7.78;3.80;;;;;;;9.91;72.99;98592.31;5068150;28;20052;-70
2022/04/07 05:03:40;;;;;;;5.90;3.15;;;;;;;10.11;72.58;98594.13;5067291;28;20060;-70
2022/04/07 05:06:07;;;;;;;7.82;3.60;;;;;;;10.06;72.29;98592.84;5068564;28;20105;-70
2022/04/07 05:08:34;;;;;;;5.57;2.50;;;;;;;10.18;72.06;98589.25;5068336;28;20094;-70
2022/04/07 05:11:01;;;;;;;4.70;3.40;;;;;;;10.22;72.21;98590.63;5066989;28;20068;-70
2022/04/07 05:13:27;;;;;;;4.55;2.70;;;;;;;10.20;72.08;98590.75;5066884;28;20404;-70
2022/04/07 05:15:53;;;;;;;6.43;4.05;;;;;;;10.08;71.75;98590.94;5067140;28;20089;-70
2022/04/07 05:18:20;;;;;;;4.63;3.08;;;;;;;10.19;71.76;98577.81;5067614;28;20094;-70
2022/04/07 05:20:46;;;;;;;4.32;2.63;;;;;;;10.26;71.19;98565.84;5067014;28;20044;-70
2022/04/07 05:23:12;;;;;;;4.90;2.83;;;;;;;10.35;71.02;98575.53;5067232;28;20520;-70
2022/04/07 05:25:40;;;;;;;4.38;3.08;;;;;;;10.43;70.68;98572.25;5067596;28;20052;-70
2022/04/07 05:28:07;;;;;;;5.90;3.30;;;;;;;10.41;70.23;98572.41;5066160;28;20049;-70
2022/04/07 05:30:33;;;;;;;5.50;3.30;;;;;;;10.26;70.88;98573.72;5070427;28;20063;-70
2022/04/07 05:33:00;;;;;;;3.90;2.25;;;;;;;10.32;70.22;98570.56;5069874;28;20048;-70
2022/04/07 05:35:28;;;;;;;4.35;2.50;;;;;;;10.41;70.09;98574.19;5071794;28;20098;-70
2022/04/07 05:37:58;;;;;;;5.28;2.53;;;;;;;10.29;70.61;98560.34;5071240;28;20048;-70
2022/04/07 05:40:24;;;;;;;3.95;1.70;;;;;;;10.45;69.48;98554.66;5070788;28;20110;-70
2022/04/07 05:42:52;;;;;;;2.95;1.65;;;;;;;10.50;69.07;98561.13;5071397;28;20040;-70
2022/04/07 05:45:19;;;;;;;7.15;1.77;;;;;;;10.38;69.96;98548.28;5070410;28;20044;-70
2022/04/07 05:47:45;;;;;;;4.28;1.73;;;;;;;10.56;69.08;98558.00;5070955;28;20045;-70
2022/04/07 05:50:11;;;;;;;3.08;1.52;;;;;;;10.65;69.17;98562.44;5070892;28;20045;-70
2022/04/07 05:52:38;;;;;;;3.17;1.40;;;;;;;10.42;70.00;98565.38;5071700;28;20102;-70
2022/04/07 05:55:05;;;;;;;2.80;1.40;;;;;;;10.30;70.34;98561.19;5068934;28;20048;-69
2022/04/07 05:57:31;;;;;;;4.22;1.65;;;;;;;10.17;71.45;98543.03;5063327;28;20071;-69
2022/04/07 06:00:04;;;;;;;2.70;1.30;;;;;;;10.11;71.64;98554.84;5069609;28;20415;-69
2022/04/07 06:02:31;;;;;;;4.97;1.85;;;;;;;10.19;71.95;98544.59;5070862;28;20454;-70
2022/04/07 06:04:57;;;;;;;3.85;1.52;;;;;;;10.24;72.00;98552.03;5071159;28;20522;-71
2022/04/07 06:07:23;;;;;;;2.63;1.70;;;;;;;10.02;73.17;98546.91;5070838;28;20052;-71
2022/04/07 06:09:50;;;;;;;3.97;1.90;;;;;;;10.07;73.29;98534.28;5070428;28;20052;-71
2022/04/07 06:12:16;;;;;;;3.03;1.98;;;;;;;9.96;74.37;98536.97;5071043;28;20074;-71
2022/04/07 06:14:42;;;;;;;4.88;2.53;;;;;;;9.96;74.56;98534.34;5061377;28;20074;-71
2022/04/07 06:17:10;;;;;;;4.80;2.70;;;;;;;9.96;74.79;98519.50;5070256;28;20075;-71
2022/04/07 06:19:36;;;;;;;3.17;2.20;;;;;;;10.24;73.33;98523.22;5070719;28;20137;-72
2022/04/07 06:22:05;;;;;;;4.55;2.58;;;;;;;10.15;73.86;98521.41;5070614;28;20561;-73
2022/04/07 06:24:31;;;;;;;4.72;2.45;;;;;;;10.14;73.88;98514.47;5070365;28;20504;-73
2022/04/07 06:26:57;;;;;;;5.40;2.83;;;;;;;9.99;74.53;98507.91;5071234;28;20649;-73
2022/04/07 06:29:24;;;;;;;4.75;2.63;;;;;;;10.30;73.13;98495.69;5068573;28;20458;-73
2022/04/07 06:31:50;;;;;;;3.55;2.28;;;;;;;10.41;72.50;98506.09;5071105;28;20520;-72
2022/04/07 06:34:18;;;;;;;3.75;2.60;;;;;;;10.40;71.98;98497.41;5071369;28;20546;-73
2022/04/07 06:36:44;;;;;;;3.83;2.65;;;;;;;10.26;72.37;98495.13;5072226;28;20048;-73
2022/04/07 06:39:11;;;;;;;6.22;2.20;;;;;;;10.50;72.04;98487.75;5070854;28;20048;-73
2022/04/07 06:41:37;;;;;;;4.85;2.30;;;;;;;10.66;70.96;98485.47;5069123;28;20188;-73
2022/04/07 06:44:04;;;;;;;3.97;2.60;;;;;;;11.34;69.41;98473.28;5052218;28;20041;-74
2022/04/07 06:46:32;;;;;;;3.42;2.00;;;;;;;11.79;67.41;98463.00;5069409;28;20048;-74
2022/04/07 06:48:59;;;;;;;7.05;2.30;;;;;;;11.85;66.75;98454.56;5069359;28;20058;-72
2022/04/07 06:51:27;;;;;;;4.25;1.60;;;;;;;11.82;66.87;98464.53;5069757;28;20052;-72
2022/04/07 06:53:54;;;;;;;4.32;2.10;;;;;;;11.96;66.37;98461.44;5062379;28;20126;-72
2022/04/07 06:56:20;;;;;;;3.28;1.55;;;;;;;11.95;66.05;98460.59;5070087;28;20049;-72
2022/04/07 06:58:46;;;;;;;3.28;1.38;;;;;;;11.44;66.57;98453.09;5067387;28;20094;-72
2022/04/07 07:01:13;;;;;;;2.67;1.50;;;;;;;11.23;67.91;98444.56;5069128;28;20102;-72
2022/04/07 07:03:39;;;;;;;3.85;1.55;;;;;;;11.45;67.47;98443.44;5069213;28;20072;-72
2022/04/07 07:06:05;;;;;;;4.20;1.70;;;;;;;11.60;66.64;98442.03;5070010;28;20106;-72
2022/04/07 07:08:33;;;;;;;3.08;1.70;;;;;;;11.48;67.02;98425.59;5070108;28;20048;-72
2022/04/07 07:10:59;;;;;;;7.57;1.60;;;;;;;11.64;66.89;98419.78;5068991;28;20518;-72
2022/04/07 07:13:26;;;;;;;3.30;1.70;;;;;;;11.74;65.95;98411.91;5062288;28;20594;-72
2022/04/07 07:15:52;;;;;;;3.33;1.65;;;;;;;12.28;64.67;98419.00;5068357;28;20066;-72
2022/04/07 07:18:19;;;;;;;3.60;1.67;;;;;;;12.54;63.74;98410.28;5069045;28;20068;-71
2022/04/07 07:20:45;;;;;;;6.80;2.13;;;;;;;12.94;62.74;98396.69;5069054;28;20070;-70
2022/04/07 07:23:11;;;;;;;5.28;1.70;;;;;;;12.59;63.43;98375.66;5058181;28;20052;-70
2022/04/07 07:25:39;;;;;;;3.78;1.70;;;;;;;12.67;62.14;98373.91;5069940;28;20048;-70
2022/04/07 07:28:06;;;;;;;2.00;1.27;;;;;;;12.29;64.02;98368.09;5069616;28;20044;-70
2022/04/07 07:30:32;;;;;;;3.58;2.00;;;;;;;12.42;64.26;98365.94;5067337;28;20106;-71
2022/04/07 07:32:59;;;;;;;2.78;1.40;;;;;;;13.08;62.50;98351.44;5058359;28;20095;-71
2022/04/07 07:35:25;;;;;;;4.07;1.63;;;;;;;13.40;61.06;98356.16;5049399;28;20511;-72
2022/04/07 07:37:54;;;;;;;3.80;1.35;;;;;;;13.65;61.21;98334.25;5049064;28;20045;-70
2022/04/07 07:40:22;;;;;;;3.17;1.48;;;;;;;13.68;60.33;98340.16;5047400;28;20087;-71
2022/04/07 07:42:52;;;;;;;3.72;2.00;;;;;;;13.73;60.71;98349.25;5057391;28;20045;-70
2022/04/07 07:45:19;;;;;;;2.00;1.20;;;;;;;13.62;60.66;98313.50;5068808;28;20071;-70
2022/04/07 07:47:45;;;;;;;3.90;1.83;;;;;;;13.56;62.14;98323.84;5068658;28;20052;-71
2022/04/07 07:50:12;;;;;;;3.05;1.83;;;;;;;13.25;61.55;98312.94;5068285;28;20048;-70
2022/04/07 07:52:38;;;;;;;2.33;1.27;;;;;;;13.54;61.34;98302.09;5068779;28;20044;-70
2022/04/07 07:55:05;;;;;;;3.95;1.63;;;;;;;13.65;61.03;98312.34;5069124;28;20060;-70
2022/04/07 07:57:32;;;;;;;1.83;1.40;;;;;;;13.99;60.50;98301.78;5068998;28;20067;-71
2022/04/07 08:00:00;;;;;;;4.93;1.30;;;;;;;14.28;60.51;98294.28;5066673;28;20582;-70
2022/04/07 08:02:27;;;;;;;3.15;1.52;;;;;;;14.46;60.66;98304.72;5068137;28;20040;-72
2022/04/07 08:04:54;;;;;;;2.22;1.45;;;;;;;14.14;61.48;98297.56;5068718;28;20462;-70
2022/04/07 08:07:21;;;;;;;1.92;1.30;;;;;;;13.59;62.08;98294.56;5068839;28;20045;-70
2022/04/07 08:09:48;;;;;;;2.05;1.20;;;;;;;13.64;60.44;98297.53;5067949;28;20055;-70
2022/04/07 08:12:14;;;;;;;2.17;1.30;;;;;;;13.81;62.35;98285.25;5067808;28;20110;-71
2022/04/07 08:14:41;;;;;;;2.40;1.55;;;;;;;14.09;60.67;98282.22;5068099;28;20048;-71
2022/04/07 08:17:08;;;;;;;3.00;1.35;;;;;;;14.50;59.65;98285.78;5068814;28;20409;-72
2022/04/07 08:19:36;;;;;;;1.90;1.08;;;;;;;14.22;58.84;98279.13;5065934;28;20040;-70
2022/04/07 08:22:03;;;;;;;2.30;1.30;;;;;;;14.04;60.15;98278.44;5067953;28;20389;-71
2022/04/07 08:24:29;;;;;;;2.08;1.20;;;;;;;13.57;60.54;98267.53;5068317;28;20133;-70
2022/04/07 08:26:55;;;;;;;3.63;1.20;;;;;;;13.29;61.25;98261.66;5066897;28;20045;-70
2022/04/07 08:29:22;;;;;;;2.72;1.40;;;;;;;13.25;62.63;98277.91;5066455;28;20260;-71
2022/04/07 08:31:51;;;;;;;2.17;1.10;;;;;;;13.09;62.26;98250.50;5068309;28;20439;-71
2022/04/07 08:34:19;;;;;;;3.65;1.17;;;;;;;13.31;61.67;98258.84;5066508;28;20687;-71
2022/04/07 08:36:46;;;;;;;3.35;1.20;;;;;;;13.08;62.10;98261.19;5068296;28;20094;-71
2022/04/07 08:39:12;;;;;;;2.55;1.30;;;;;;;12.86;62.27;98277.47;5067694;28;20094;-71
2022/04/07 08:41:40;;;;;;;3.55;1.20;;;;;;;12.68;63.59;98249.38;5067831;28;20079;-70
2022/04/07 08:44:07;;;;;;;2.13;1.17;;;;;;;12.75;63.32;98233.00;5067606;28;20047;-66
2022/04/07 08:46:34;;;;;;;3.00;1.50;;;;;;;12.51;63.10;98226.56;5067923;28;20036;-66
2022/04/07 08:49:03;;;;;;;2.40;1.23;;;;;;;12.43;63.70;98229.13;5067263;28;20052;-66
2022/04/07 08:51:31;;;;;;;1.90;1.10;;;;;;;12.39;63.78;98225.16;5067384;28;20127;-66
2022/04/07 08:53:58;;;;;;;1.42;0.82;;;;;;;12.49;62.88;98220.63;5067652;28;20037;-66
2022/04/07 08:56:25;;;;;;;1.50;1.00;;;;;;;12.32;63.34;98216.22;5067501;28;20097;-66
2022/04/07 08:58:53;;;;;;;4.88;1.40;;;;;;;12.39;63.46;98193.63;5067106;28;20041;-67
2022/04/07 09:01:20;;;;;;;3.70;1.58;;;;;;;12.38;63.54;98178.81;5064058;28;20043;-67
2022/04/07 09:03:46;;;;;;;2.88;1.40;;;;;;;12.70;63.06;98183.50;5066807;28;20040;-66
2022/04/07 09:06:15;;;;;;;2.88;1.30;;;;;;;12.61;62.47;98187.88;5065657;28;20052;-66
2022/04/07 09:08:42;;;;;;;4.10;1.23;;;;;;;12.84;62.35;98184.72;5067426;28;20098;-67
2022/04/07 09:11:10;;;;;;;3.15;1.35;;;;;;;12.71;62.99;98179.91;5067066;28;20474;-66
2022/04/07 09:13:39;;;;;;;3.80;1.38;;;;;;;12.56;62.07;98165.66;5066944;28;20071;-66
2022/04/07 09:16:08;;;;;;;3.58;1.20;;;;;;;12.60;62.28;98161.75;5067271;28;20403;-66
2022/04/07 09:18:36;;;;;;;2.38;1.17;;;;;;;12.88;61.89;98125.59;5067473;28;20500;-66
2022/04/07 09:21:02;;;;;;;1.98;1.38;;;;;;;12.77;61.20;98128.50;5067061;28;20049;-66
2022/04/07 09:23:29;;;;;;;2.42;1.17;;;;;;;12.67;62.27;98132.03;5066563;28;20493;-67
2022/04/07 09:25:58;;;;;;;2.92;1.23;;;;;;;12.62;61.93;98115.94;5065604;28;20459;-66
2022/04/07 09:28:29;;;;;;;3.58;1.30;;;;;;;12.83;61.59;98117.34;5066086;28;20201;-66
2022/04/07 09:30:56;;;;;;;3.20;1.30;;;;;;;12.96;61.89;98101.97;5067106;28;20133;-66
2022/04/07 09:33:24;;;;;;;3.45;1.10;;;;;;;12.94;61.19;98096.84;5067073;28;20064;-66
2022/04/07 09:36:01;;;;;;;3.30;1.00;;;;;;;12.83;60.15;98091.88;5066017;28;20044;-66
2022/04/07 09:38:30;;;;;;;2.90;1.20;;;;;;;12.75;60.06;98067.34;5067231;28;20127;-66
2022/04/07 09:41:08;;;;;;;3.50;1.33;;;;;;;12.85;60.19;98065.41;5066743;28;20431;-66
2022/04/07 09:43:45;;;;;;;3.33;1.45;;;;;;;12.83;60.02;98083.16;5066544;28;20040;-66
2022/04/07 09:46:13;;;;;;;1.42;0.90;;;;;;;12.98;59.81;98045.56;5065169;28;20041;-66
2022/04/07 09:48:40;;;;;;;1.63;0.90;;;;;;;13.08;59.82;98045.47;5064828;28;20044;-66
2022/04/07 09:51:07;;;;;;;2.35;1.05;;;;;;;13.08;59.79;98041.00;5066462;28;20048;-66
2022/04/07 09:53:38;;;;;;;2.97;0.88;;;;;;;12.91;60.38;98034.03;5065063;28;20048;-66
2022/04/07 09:56:07;;;;;;;1.73;0.75;;;;;;;13.00;59.95;98027.00;5049937;28;20075;-66
2022/04/07 09:58:35;;;;;;;2.78;0.75;;;;;;;12.88;59.90;98021.22;5067244;28;20044;-66
2022/04/07 10:01:03;;;;;;;1.63;0.70;;;;;;;12.98;59.71;98024.53;5066507;28;20098;-66
2022/04/07 10:03:31;;;;;;;1.30;0.70;;;;;;;13.04;59.15;98016.00;5067190;28;20047;-66
2022/04/07 10:05:58;;;;;;;2.28;0.73;;;;;;;12.97;59.78;97993.94;5066181;28;20044;-66
2022/04/07 10:08:25;;;;;;;2.65;0.90;;;;;;;12.95;59.54;98005.63;5065988;28;20080;-66
2022/04/07 10:10:52;;;;;;;0.93;0.60;;;;;;;12.95;59.28;97998.56;5058700;28;20499;-66
2022/04/07 10:13:20;;;;;;;7.40;0.98;;;;;;;13.01;59.30;97991.81;5065978;28;20036;-66
2022/04/07 10:15:47;;;;;;;3.30;0.60;;;;;;;13.13;59.48;97980.03;5067293;28;20048;-66
2022/04/07 10:18:21;;;;;;;1.65;0.55;;;;;;;13.32;59.47;97987.63;5070452;28;20041;-66
2022/04/07 10:20:53;;;;;;;2.38;0.60;;;;;;;13.45;58.22;97951.09;5079185;28;20094;-66
2022/04/07 10:23:35;;;;;;;1.58;0.57;;;;;;;13.42;57.65;97959.34;5070572;28;20044;-66
2022/04/07 10:26:03;;;;;;;2.90;0.68;;;;;;;13.31;57.59;97953.56;5050577;28;20139;-66
2022/04/07 10:28:31;;;;;;;1.10;0.57;;;;;;;13.28;58.59;97946.84;5060846;28;20044;-66
2022/04/07 10:30:59;;;;;;;1.75;0.50;;;;;;;13.17;57.94;97912.97;5070198;28;20044;-66
2022/04/07 10:33:42;;;;;;;2.85;0.40;;;;;;;13.27;58.56;97932.03;5069368;28;20496;-66
2022/04/07 10:36:10;;;;;;;1.13;0.50;;;;;;;13.12;58.72;97899.47;5070316;28;20040;-65
2022/04/07 10:38:39;;;;;;;3.55;0.68;;;;;;;13.30;59.15;97894.88;5068508;28;20066;-65
2022/04/07 10:41:05;;;;;;;2.25;0.68;;;;;;;13.09;60.98;97884.84;5070206;28;20500;-65
2022/04/07 10:43:38;;;;;;;2.83;0.60;;;;;;;13.00;60.52;97890.25;5070466;28;20052;-65
2022/04/07 10:46:14;;;;;;;0.60;0.40;;;;;;;13.02;60.35;97867.22;5064886;28;20045;-66
2022/04/07 10:48:45;;;;;;;2.22;0.50;;;;;;;13.08;60.10;97851.59;5068575;28;20044;-66
2022/04/07 10:51:13;;;;;;;0.50;0.40;;;;;;;13.07;60.04;97843.88;5069461;28;20036;-66
2022/04/07 10:53:41;;;;;;;0.70;0.40;;;;;;;13.07;60.14;97860.50;5069833;28;20094;-66
2022/04/07 10:56:10;;;;;;;1.38;0.40;;;;;;;13.19;60.70;97836.50;5069632;28;20045;-66
2022/04/07 10:58:49;;;;;;;0.68;0.45;;;;;;;13.33;59.90;97828.75;5058438;28;20040;-66
2022/04/07 11:01:37;;;;;;;1.35;0.47;;;;;;;13.52;60.00;97836.28;5064466;28;20064;-66
2022/04/07 11:04:44;;;;;;;1.27;0.60;;;;;;;13.10;61.05;97819.91;5068076;28;20109;-66
2022/04/07 11:07:16;;;;;;;0.90;0.40;;;;;;;12.92;62.38;97824.47;5056059;28;20056;-66
2022/04/07 11:09:43;;;;;;;1.07;0.40;;;;;;;12.86;63.32;97790.97;5068686;28;20048;-66
2022/04/07 11:12:11;;;;;;;0.70;0.47;;;;;;;13.02;63.71;97799.66;5070179;28;20060;-66
2022/04/07 11:14:38;;;;;;;1.17;0.52;;;;;;;13.16;62.56;97792.91;5085936;28;20113;-66
2022/04/07 11:17:07;;;;;;;1.42;0.50;;;;;;;13.35;62.26;97789.09;5066923;28;20040;-66
2022/04/07 11:19:44;;;;;;;3.55;0.70;;;;;;;13.19;62.42;97784.72;5068926;28;20046;-66
2022/04/07 11:22:12;;;;;;;2.00;0.50;;;;;;;13.12;61.94;97778.44;5067728;28;20067;-66
2022/04/07 11:24:44;;;;;;;1.55;0.50;;;;;;;13.15;62.29;97759.72;5069526;28;20674;-66
2022/04/07 11:27:34;;;;;;;1.40;0.50;;;;;;;13.39;61.69;97769.34;5068663;28;20113;-66
2022/04/07 11:30:05;;;;;;;0.75;0.50;;;;;;;13.33;62.36;97762.16;5067696;28;20083;-66
2022/04/07 11:32:32;;;;;;;2.45;0.68;;;;;;;13.18;62.10;97759.38;5068990;28;20098;-66
2022/04/07 11:35:12;;;;;;;1.08;0.45;;;;;;;13.02;64.65;97726.00;5069171;28;20412;-66
2022/04/07 11:37:40;;;;;;;1.00;0.50;;;;;;;12.93;67.04;97705.97;5069696;28;20037;-66
2022/04/07 11:40:09;;;;;;;2.80;0.50;;;;;;;12.81;67.50;97706.47;5068173;28;20051;-66